Latest Coastal Weather Observations for Portland Airport

IDV60701

Issued at 3:55 pm EST Friday 22 August 2014 (issued every 10 minutes, with the page automatically refreshed every 10 minutes)

About coastal observations | Map of coastal stations | Coastal observations for VIC | Marine services | Other Formats
Station Details ID: 090171 Name: CASHMORE AIRPORT Lat: -38.31 Lon: 141.47 Height: 80.9 m
Data from the previous 72 hours. | See also: Recent months at Portland Airport
Date/Time
EST
Temp

°C
Wind Pressure Rain
since 9am
mm
Weather Cloud Vis
km
Sea
Height
m
Swell
Dir
 
Speed
knots
Gust
knots
hPa Trend Height
m
Period
s
Dir
22/03:30pm 17.4 NNE 7 11 1025.9 - 0.0 - Partly cloudy 10 - - - -
22/03:00pm 16.3 N 7 10 1026.2 - 0.0 - Cloudy 10 - - - -
22/02:30pm 16.1 N 9 15 1026.5 - 0.0 - Cloudy 10 - - - -
22/02:00pm 16.3 N 9 12 1026.7 - 0.0 - Cloudy 10 - - - -
22/01:30pm 15.5 N 9 13 1027.0 - 0.0 - Cloudy 10 - - - -
22/01:00pm 15.2 N 10 16 1027.3 - 0.0 - Cloudy 10 - - - -
22/12:30pm 15.1 N 9 13 1027.8 - 0.0 - Cloudy 10 - - - -
22/12:00pm 14.5 N 12 17 1028.2 - 0.0 - Mostly cloudy 10 - - - -
22/11:30am 13.4 N 11 16 1028.4 - 0.0 - Cloudy 10 - - - -
22/11:00am 13.3 N 9 15 1028.7 - 0.0 - Cloudy 10 - - - -
22/10:30am 12.1 N 10 13 1028.7 - 0.0 - Cloudy 10 - - - -
22/10:00am 10.5 N 8 11 1028.8 - 0.0 - Cloudy 10 - - - -
22/09:30am 9.0 N 6 9 1028.9 - 0.0 - Cloudy 10 - - - -
22/09:00am 7.8 N 7 9 1028.8 - 0.2 - Cloudy 10 - - - -
22/08:30am 6.8 N 5 8 1028.7 - 0.2 - Cloudy 10 - - - -
22/08:00am 5.7 N 6 9 1028.4 - 0.2 - Partly cloudy 10 - - - -
22/07:30am 4.9 N 5 6 1028.2 - 0.2 - - 10 - - - -
22/07:00am 5.2 NNW 4 5 1028.0 - 0.2 - Partly cloudy 10 - - - -
22/06:30am 5.3 N 5 7 1027.8 - 0.2 - - 10 - - - -
22/06:00am 5.2 N 7 10 1027.7 - 0.2 - - 10 - - - -
22/05:30am 4.1 N 7 9 1027.6 - 0.2 - - 10 - - - -
22/05:00am 4.0 N 6 7 1027.4 - 0.2 - - 10 - - - -
22/04:30am 3.8 N 7 8 1027.4 - 0.2 - - 10 - - - -
22/04:00am 4.7 N 6 7 1027.3 - 0.2 - - 10 - - - -
22/03:30am 5.2 N 7 9 1027.3 - 0.2 - - 10 - - - -
22/03:00am 5.1 N 7 9 1027.5 - 0.2 - - 10 - - - -
22/02:30am 5.4 N 6 8 1027.7 - 0.2 - - 10 - - - -
22/02:00am 5.0 N 5 6 1028.0 - 0.2 - - 10 - - - -
22/01:30am 4.4 N 4 5 1028.0 - 0.2 - - 8 - - - -
22/01:00am 4.6 N 4 4 1028.0 - 0.2 - - 10 - - - -
22/12:30am 4.6 N 4 4 1027.9 - 0.2 - - 10 - - - -
22/12:00am 5.1 N 4 5 1028.0 - 0.0 - - 10 - - - -
 
Date/Time
EST
Temp

°C
Wind Pressure Rain
since 9am
mm
Weather Cloud Vis
km
Sea
Height
m
Swell
Dir
 
Speed
knots
Gust
knots
hPa Trend Height
m
Period
s
Dir
21/11:30pm 5.7 N 5 6 1028.0 - 0.0 - - 10 - - - -
21/11:00pm 5.4 NE 4 5 1028.1 - 0.0 - - 10 - - - -
21/10:30pm 5.5 ENE 4 4 1028.1 - 0.0 - - 10 - - - -
21/10:00pm 5.1 CALM 0 0 1028.1 - 0.0 - - 10 - - - -
21/09:30pm 6.0 ENE 3 4 1028.2 - 0.0 - - 10 - - - -
21/09:00pm 6.7 ENE 3 3 1028.1 - 0.0 - - 10 - - - -
21/08:30pm 8.2 ENE 3 4 1027.9 - 0.0 - - 10 - - - -
21/08:00pm 9.1 ENE 3 4 1027.7 - 0.0 - - 10 - - - -
21/07:30pm 10.0 ENE 5 6 1027.7 - 0.0 - Cloudy 10 - - - -
21/07:00pm 10.7 ENE 4 6 1027.7 - 0.0 - Cloudy 10 - - - -
21/06:30pm 10.6 ENE 4 5 1027.5 - 0.0 - Cloudy 10 - - - -
21/06:00pm 11.0 ENE 4 5 1027.2 - 0.0 - Cloudy 10 - - - -
21/05:30pm 11.6 E 5 6 1027.0 - 0.0 - Cloudy 10 - - - -
21/05:00pm 12.0 E 5 7 1026.9 - 0.0 - Cloudy 10 - - - -
21/04:30pm 12.1 E 5 7 1026.7 - 0.0 - Cloudy 10 - - - -
21/04:00pm 11.9 E 6 9 1026.5 - 0.0 - Cloudy 10 - - - -
21/03:30pm 12.3 E 6 9 1026.5 - 0.0 - Cloudy 10 - - - -
21/03:00pm 12.6 ENE 5 8 1026.6 - 0.0 - Mostly cloudy 10 - - - -
21/02:30pm 12.5 ENE 6 8 1026.6 - 0.0 - Cloudy 10 - - - -
21/02:00pm 12.5 E 6 8 1026.7 - 0.0 - Partly cloudy 10 - - - -
21/01:30pm 13.8 E 6 10 1027.1 - 0.0 - Partly cloudy 10 - - - -
21/01:00pm 13.2 ENE 6 10 1027.5 - 0.0 - Partly cloudy 10 - - - -
21/12:30pm 13.3 E 5 10 1027.8 - 0.0 - Partly cloudy 10 - - - -
21/12:00pm 12.5 ESE 5 8 1028.3 - 0.0 - Partly cloudy 10 - - - -
21/11:30am 13.3 ENE 5 7 1028.5 - 0.0 - Partly cloudy 10 - - - -
21/11:00am 12.0 ENE 5 7 1028.9 - 0.0 - Cloudy 10 - - - -
21/10:30am 11.3 ENE 5 8 1029.0 - 0.0 - Cloudy 10 - - - -
21/10:00am 11.1 NNE 5 6 1029.1 - 0.0 - Cloudy 10 - - - -
21/09:30am 10.7 NNE 4 6 1029.1 - 0.0 - Cloudy 10 - - - -
21/09:00am 9.9 N 3 4 1029.1 - 0.4 - Cloudy 10 - - - -
21/08:30am 8.5 N 2 4 1029.0 - 0.4 - Cloudy 10 - - - -
21/08:00am 7.6 WSW 3 4 1029.0 - 0.4 - Cloudy 10 - - - -
21/07:30am 7.1 WSW 4 4 1028.7 - 0.4 - Partly cloudy 10 - - - -
21/07:00am 7.8 CALM 0 0 1028.4 - 0.4 - Cloudy 10 - - - -
21/06:30am 7.9 WSW 1 3 1028.2 - 0.4 - Cloudy 10 - - - -
21/06:00am 7.9 NNW 4 5 1028.1 - 0.4 - Cloudy 10 - - - -
21/05:30am 7.9 NNE 3 5 1028.2 - 0.4 - Partly cloudy 10 - - - -
21/05:00am 7.9 CALM 0 0 1028.2 - 0.4 - Cloudy 10 - - - -
21/04:30am 8.0 CALM 0 0 1028.2 - 0.4 - Partly cloudy 10 - - - -
21/04:00am 7.8 CALM 0 0 1028.2 - 0.4 - Partly cloudy 10 - - - -
21/03:50am 7.9 CALM 0 0 1028.2 - 0.4 - Partly cloudy 10 - - - -
21/03:32am 8.2 NNE 2 5 1028.3 - 0.4 - Partly cloudy 10 - - - -
21/03:30am 8.2 NNE 1 4 1028.3 - 0.4 - Partly cloudy 10 - - - -
21/03:07am 7.9 N 5 6 1028.1 - 0.4 - Partly cloudy 10 - - - -
21/03:00am 7.9 NNE 5 6 1028.2 - 0.4 - Cloudy 9 - - - -
21/02:57am 8.0 NNE 5 6 1028.3 - 0.4 - Partly cloudy 6 - - - -
21/02:30am 8.0 NNE 4 5 1028.4 - 0.4 - Partly cloudy 10 - - - -
21/02:00am 7.5 CALM 0 0 1028.5 - 0.4 - Partly cloudy 10 - - - -
21/01:30am 8.1 CALM 0 0 1028.6 - 0.4 - Partly cloudy 10 - - - -
21/01:21am 8.5 CALM 0 0 1028.5 - 0.4 - Partly cloudy 10 - - - -
21/01:00am 8.8 ENE 1 4 1028.7 - 0.4 - Partly cloudy 6 - - - -
21/12:54am 8.8 NE 3 4 1028.7 - 0.4 - Partly cloudy 6 - - - -
21/12:30am 8.5 NE 3 5 1028.6 - 0.4 - Partly cloudy 10 - - - -
21/12:00am 9.6 NE 4 5 1028.6 - 0.4 - Cloudy 10 - - - -
 
Date/Time
EST
Temp

°C
Wind Pressure Rain
since 9am
mm
Weather Cloud Vis
km
Sea
Height
m
Swell
Dir
 
Speed
knots
Gust
knots
hPa Trend Height
m
Period
s
Dir
20/11:30pm 9.4 CALM 0 0 1028.5 - 0.4 - Partly cloudy 10 - - - -
20/11:00pm 9.8 SE 3 5 1028.6 - 0.4 - Partly cloudy 10 - - - -
20/10:30pm 9.5 SE 6 8 1028.7 - 0.4 - Partly cloudy 10 - - - -
20/10:00pm 9.4 SE 5 7 1028.7 - 0.4 - Partly cloudy 10 - - - -
20/09:51pm 9.2 ESE 5 8 1028.8 - 0.4 - Partly cloudy 9 - - - -
20/09:30pm 9.1 ESE 4 8 1028.8 - 0.2 - Partly cloudy 5 - - - -
20/09:27pm 9.1 ESE 4 7 1028.8 - 0.2 - Partly cloudy 6 - - - -
20/09:00pm 9.0 ESE 3 5 1028.7 - 0.2 - Cloudy 10 - - - -
20/08:30pm 8.5 CALM 0 0 1028.7 - 0.2 - Cloudy 10 - - - -
20/08:00pm 9.1 CALM 0 0 1028.7 - 0.2 - Cloudy 10 - - - -
20/07:30pm 9.1 ESE 3 5 1028.8 - 0.2 - Cloudy 10 - - - -
20/07:00pm 9.4 CALM 0 0 1028.8 - 0.2 - Partly cloudy 10 - - - -
20/06:30pm 9.6 SE 4 6 1028.7 - 0.2 - Partly cloudy 10 - - - -
20/06:28pm 9.7 SE 5 6 1028.7 - 0.2 - Partly cloudy 10 - - - -
20/06:07pm 10.4 SSE 5 10 1028.6 - 0.0 - Partly cloudy 6 - - - -
20/06:00pm 10.4 SSE 4 5 1028.5 - 0.0 - Cloudy 10 - - - -
20/05:30pm 10.7 S 5 6 1028.3 - 0.0 - Partly cloudy 10 - - - -
20/05:00pm 10.9 S 7 11 1028.2 - 0.0 - Partly cloudy 9 - - - -
20/04:30pm 11.3 SE 6 9 1028.0 - 0.0 - Partly cloudy 10 - - - -
20/04:00pm 11.9 SE 7 10 1027.9 - 0.0 - Partly cloudy 10 - - - -
20/03:30pm 11.9 SE 7 11 1027.8 - 0.0 - Partly cloudy 10 - - - -
20/03:00pm 12.8 ESE 8 12 1027.6 - 0.0 - Mostly clear 10 - - - -
20/02:30pm 12.6 SE 7 10 1027.6 - 0.0 - Partly cloudy 10 - - - -
20/02:00pm 12.7 ESE 6 11 1027.5 - 0.0 - Partly cloudy 10 - - - -
20/01:30pm 12.9 ESE 7 11 1027.7 - 0.0 - Partly cloudy 10 - - - -
20/01:00pm 13.0 ESE 7 10 1027.9 - 0.0 - Partly cloudy 10 - - - -
20/12:30pm 12.3 SE 7 10 1028.2 - 0.0 - Partly cloudy 10 - - - -
20/12:00pm 11.4 SSE 7 11 1028.5 - 0.0 - Cloudy 10 - - - -
20/11:30am 12.6 SE 8 11 1028.6 - 0.0 - Cloudy 10 - - - -
20/11:00am 13.0 SSE 8 11 1028.6 - 0.0 - Partly cloudy 10 - - - -
20/10:30am 12.8 SSE 7 11 1028.5 - 0.0 - Partly cloudy 10 - - - -
20/10:00am 11.1 SSE 8 12 1028.6 - 0.0 - Cloudy 10 - - - -
20/09:30am 11.6 SSE 6 10 1028.3 - 0.0 - - 10 - - - -
20/09:00am 9.8 CALM 0 2 1028.3 - 0.0 - Partly cloudy 10 - - - -
20/08:30am 9.3 SSE 4 7 1028.1 - 0.0 - Partly cloudy 10 - - - -
20/08:00am 8.4 CALM 0 2 1027.8 - 0.0 - Cloudy 10 - - - -
20/07:30am 8.7 SSE 3 5 1027.5 - 0.0 - Cloudy 10 - - - -
20/07:00am 9.5 SE 5 6 1027.2 - 0.0 - Cloudy 10 - - - -
20/06:30am 9.7 SE 5 8 1026.9 - 0.0 - Cloudy 10 - - - -
20/06:00am 9.6 SE 5 7 1026.7 - 0.0 - Cloudy 10 - - - -
20/05:30am 8.8 SSE 3 5 1026.7 - 0.0 - Cloudy 10 - - - -
20/05:00am 8.4 CALM 0 0 1026.5 - 0.0 - Cloudy 10 - - - -
20/04:30am 8.4 E 1 3 1026.4 - 0.0 - Cloudy 10 - - - -
20/04:00am 8.3 CALM 0 0 1026.5 - 0.0 - Cloudy 10 - - - -
20/03:30am 8.2 CALM 0 0 1026.5 - 0.0 - Cloudy 10 - - - -
20/03:00am 8.0 SE 3 4 1026.7 - 0.0 - Cloudy 10 - - - -
20/02:30am 7.8 CALM 0 0 1027.0 - 0.0 - Cloudy 10 - - - -
20/02:00am 7.8 CALM 0 0 1026.9 - 0.0 - Partly cloudy 10 - - - -
20/01:30am 8.4 CALM 0 0 1027.1 - 0.0 - Cloudy 10 - - - -
20/01:00am 8.5 CALM 0 0 1027.2 - 0.0 - Cloudy 10 - - - -
20/12:30am 8.7 ESE 3 4 1027.2 - 0.0 - Partly cloudy 10 - - - -
20/12:00am 8.8 SE 7 9 1027.2 - 0.0 - Cloudy 10 - - - -
 
Date/Time
EST
Temp

°C
Wind Pressure Rain
since 9am
mm
Weather Cloud Vis
km
Sea
Height
m
Swell
Dir
 
Speed
knots
Gust
knots
hPa Trend Height
m
Period
s
Dir
19/11:30pm 8.0 CALM 0 0 1027.1 - 0.0 - Cloudy 10 - - - -
19/11:00pm 7.9 W 3 4 1027.3 - 0.0 - Cloudy 10 - - - -
19/10:30pm 7.6 W 1 3 1027.4 - 0.0 - Cloudy 10 - - - -
19/10:00pm 8.0 SSE 1 3 1027.4 - 0.0 - Partly cloudy 10 - - - -
19/09:30pm 8.7 CALM 0 0 1027.4 - 0.0 - Partly cloudy 10 - - - -
19/09:25pm 8.7 CALM 0 0 1027.4 - 0.0 - Partly cloudy 10 - - - -
19/09:14pm 8.8 SSE 5 7 1027.5 - 0.0 - Partly cloudy 6 - - - -
19/09:00pm 8.8 SSE 5 7 1027.5 - 0.0 - Mostly cloudy 10 - - - -
19/08:30pm 8.7 S 2 4 1027.2 - 0.0 - Partly cloudy 10 - - - -
19/08:00pm 8.3 WSW 4 4 1027.1 - 0.0 - Partly cloudy 10 - - - -
19/07:30pm 8.2 SW 2 4 1027.1 - 0.0 - Partly cloudy 10 - - - -
19/07:00pm 8.9 SW 4 5 1026.9 - 0.0 - Partly cloudy 10 - - - -
19/06:30pm 9.6 SW 5 7 1026.6 - 0.0 - Partly cloudy 10 - - - -
19/06:00pm 10.4 SSW 4 6 1026.3 - 0.0 - Cloudy 10 - - - -
19/05:30pm 10.8 SSE 4 6 1026.1 - 0.0 - Cloudy 10 - - - -
19/05:00pm 11.1 SSE 4 6 1025.9 - 0.0 - Cloudy 10 - - - -
19/04:30pm 11.4 S 5 7 1025.8 - 0.0 - Cloudy 10 - - - -
19/04:00pm 11.9 S 5 8 1025.7 - 0.0 - Cloudy 10 - - - -

Other Formats:

Comma delimited format used in spreadsheet applications
http://www.bom.gov.au/fwo/IDV60701/IDV60701.94828.axf

JavaScript Object Notation format (JSON) in row-major order
http://www.bom.gov.au/fwo/IDV60701/IDV60701.94828.json